IW1PPB-3 Loano IT current weather conditions

sailwx.info

Wind from 360 at 2 knots gusting 9

Air temperature 15.0° C
Dewpoint 9.4° C

Last reported at 2019-Dec-14 13:03 UTC.
Time now 2019-Dec-14 13:44 UTC

Location: N 44°07' E 008°15'.
View on Google Maps.

See reports from other nearby stations

  
Tides and Currents Weather Stations Pressure Air Temp Water Temp Dewpoint Dewpoint Depression Visibility Wind Speed Wind Dir Waves Ship Positions
date/time (UTC)wind fromknots sea level pressurealtimeterstation pressurevisibilityair tempwater tempwave heightnotes
2019-Dec-14 13:03 360 2 gusting 9 15.0
2019-Dec-14 12:53 360 4 gusting 8 15.0
2019-Dec-14 12:43 360 8 gusting 9 15.0
2019-Dec-14 12:33 360 7 gusting 10 15.0
2019-Dec-14 12:23 360 4 gusting 6 15.6
2019-Dec-14 12:13 360 3 gusting 7 15.0
2019-Dec-14 12:03 109 5 gusting 8 15.0
2019-Dec-14 11:53 360 3 gusting 8 15.0
2019-Dec-14 11:43 360 6 gusting 7 15.0
2019-Dec-14 11:33 063 3 gusting 8 15.0
2019-Dec-14 11:23 360 6 gusting 7 15.0
2019-Dec-14 11:13 360 6 gusting 6 15.0
2019-Dec-14 11:03 360 1 gusting 6 15.6
2019-Dec-14 10:53 360 7 gusting 7 15.6
2019-Dec-14 10:43 360 2 gusting 4 15.6
2019-Dec-14 10:33 360 3 gusting 6 15.6
2019-Dec-14 10:23 360 2 gusting 6 15.0
2019-Dec-14 10:13 360 6 gusting 7 15.6
2019-Dec-14 10:03 360 2 gusting 4 15.0
2019-Dec-14 09:53 360 3 gusting 7 15.0
2019-Dec-14 09:43 360 2 gusting 4 15.0
2019-Dec-14 09:33 360 3 gusting 3 15.0
2019-Dec-14 09:23 360 2 gusting 6 15.0
2019-Dec-14 09:03 360 4 gusting 6 14.4
2019-Dec-14 08:53 360 3 gusting 6 13.9
2019-Dec-14 08:43 360 13.9
2019-Dec-14 08:33 360 1 gusting 2 12.8
2019-Dec-14 08:23 360 2 gusting 3 12.2
2019-Dec-14 08:13 360 3 gusting 4 12.2
2019-Dec-14 08:03 360 3 gusting 4 11.7
2019-Dec-14 07:53 360 3 gusting 6 11.1
2019-Dec-14 07:43 360 2 gusting 3 11.1
2019-Dec-14 07:33 360 4 gusting 5 10.6
2019-Dec-14 07:23 303 2 gusting 3 10.6
2019-Dec-14 07:13 306 2 gusting 2 10.6
2019-Dec-14 07:03 275 4 gusting 5 10.6
2019-Dec-14 06:53 304 3 gusting 4 10.6
2019-Dec-14 06:43 315 2 gusting 4 10.6
2019-Dec-14 06:33 299 3 gusting 4 10.0
2019-Dec-14 06:23 297 2 gusting 2 10.6
2019-Dec-14 06:13 311 3 gusting 6 10.0
2019-Dec-14 06:03 312 6 gusting 6 10.0
2019-Dec-14 05:53 303 2 gusting 3 10.0
2019-Dec-14 05:43 321 1 gusting 2 10.6
2019-Dec-14 05:33 315 2 gusting 7 10.0
2019-Dec-14 05:23 321 2 gusting 3 10.0
2019-Dec-14 05:13 287 3 gusting 5 9.4
2019-Dec-14 05:03 316 2 gusting 3 9.4
2019-Dec-14 04:53 342 2 gusting 3 9.4
2019-Dec-14 04:43 287 3 gusting 4 9.4
2019-Dec-14 04:33 286 2 gusting 4 8.9
2019-Dec-14 04:23 251 2 gusting 2 10.0
2019-Dec-14 04:13 265 5 gusting 5 9.4
2019-Dec-14 04:03 255 0 gusting 1 9.4
2019-Dec-14 03:53 273 2 gusting 2 9.4
2019-Dec-14 03:43 351 2 gusting 3 10.0
2019-Dec-14 03:33 306 2 gusting 2 10.0
2019-Dec-14 03:23 309 5 gusting 5 10.6
2019-Dec-14 03:13 315 3 gusting 6 10.6
2019-Dec-14 03:03 295 3 gusting 6 10.6
2019-Dec-14 02:53 311 2 gusting 3 10.0
2019-Dec-14 02:43 315 2 gusting 2 10.6
2019-Dec-14 02:33 292 3 gusting 6 10.6
2019-Dec-14 02:23 256 2 gusting 5 10.6
2019-Dec-14 02:13 289 2 gusting 2 9.4
2019-Dec-14 02:03 309 2 gusting 2 9.4
2019-Dec-14 01:53 319 2 gusting 2 8.9
2019-Dec-14 01:43 298 2 gusting 2 8.9
2019-Dec-14 01:33 341 2 gusting 2 8.9
2019-Dec-14 01:23 341 4 gusting 6 9.4
2019-Dec-14 01:13 306 2 gusting 3 10.0
2019-Dec-14 01:03 172 1 gusting 1 10.6
2019-Dec-14 00:53 183 2 gusting 2 10.6
2019-Dec-14 00:43 329 3 gusting 6 10.6
2019-Dec-14 00:33 281 2 gusting 4 10.0
2019-Dec-14 00:23 317 2 gusting 3 10.6
2019-Dec-14 00:13 315 4 gusting 6 10.0
2019-Dec-14 00:03 276 2 gusting 4 10.0
2019-Dec-13 23:53 228 2 gusting 6 10.0
2019-Dec-13 23:43 288 2 gusting 4 10.0
2019-Dec-13 23:33 271 4 gusting 5 10.0
2019-Dec-13 23:23 292 3 gusting 5 10.0
2019-Dec-13 23:13 317 1 gusting 6 10.6
2019-Dec-13 23:03 324 2 gusting 6 10.6
2019-Dec-13 22:53 304 2 gusting 2 10.6
2019-Dec-13 22:43 286 2 gusting 4 10.6
2019-Dec-13 22:33 273 2 gusting 2 10.0
2019-Dec-13 22:23 284 4 gusting 5 10.6
2019-Dec-13 22:13 274 2 gusting 5 10.6
2019-Dec-13 22:03 277 6 gusting 7 10.6
2019-Dec-13 21:53 311 2 gusting 6 11.1
2019-Dec-13 21:33 305 2 gusting 5 10.6
2019-Dec-13 21:23 313 3 gusting 6 11.1
2019-Dec-13 21:13 313 3 gusting 6 10.6
2019-Dec-13 21:03 304 3 gusting 5 10.6
2019-Dec-13 20:53 298 6 gusting 6 10.6
2019-Dec-13 20:43 266 2 gusting 6 10.0
2019-Dec-13 20:33 303 2 gusting 2 10.0
2019-Dec-13 20:23 259 5 gusting 5 10.6
2019-Dec-13 20:13 270 7 gusting 7 10.6
2019-Dec-13 20:03 277 2 gusting 5 11.7
2019-Dec-13 19:53 312 2 gusting 5 10.6
2019-Dec-13 19:43 291 6 gusting 8 10.0
2019-Dec-13 19:33 276 6 gusting 8 10.6
2019-Dec-13 19:23 273 6 gusting 6 10.0
2019-Dec-13 19:13 265 6 gusting 6 10.6
2019-Dec-13 19:03 265 4 gusting 6 10.6
2019-Dec-13 18:53 285 2 gusting 6 10.6
2019-Dec-13 18:43 272 4 gusting 6 10.6
2019-Dec-13 18:33 277 6 gusting 7 10.0
2019-Dec-13 18:23 275 4 gusting 6 10.6
2019-Dec-13 18:13 259 4 gusting 6 10.6
2019-Dec-13 18:03 273 6 gusting 7 10.6
2019-Dec-13 17:53 271 6 gusting 7 10.6
2019-Dec-13 17:43 242 6 gusting 6 12.2
2019-Dec-13 17:33 281 6 gusting 7 11.7
2019-Dec-13 17:23 281 6 gusting 7 12.2
2019-Dec-13 17:13 288 6 gusting 9 12.8
2019-Dec-13 17:03 290 10 gusting 10 12.2
2019-Dec-13 16:53 274 5 gusting 11 12.2
2019-Dec-13 16:43 281 6 gusting 12 12.2
2019-Dec-13 16:33 271 7 gusting 10 12.2
2019-Dec-13 16:23 360 7 gusting 9 12.8
2019-Dec-13 16:13 360 7 gusting 8 13.3
2019-Dec-13 16:03 360 11 gusting 16 13.3
2019-Dec-13 15:53 360 8 gusting 14 13.9
2019-Dec-13 15:43 360 15 gusting 15 13.9
2019-Dec-13 15:33 360 14 gusting 22 13.9
2019-Dec-13 15:23 360 13 gusting 23 13.9
2019-Dec-13 15:13 360 13 gusting 24 13.9
2019-Dec-13 15:03 360 22 gusting 23 13.9
2019-Dec-13 14:53 360 13 gusting 19 13.9
2019-Dec-13 14:43 360 24 gusting 26 13.3
2019-Dec-13 14:33 360 19 gusting 23 12.8
2019-Dec-13 14:23 360 13 gusting 19 12.2
2019-Dec-13 14:13 360 11 gusting 21 12.8
2019-Dec-13 14:03 360 6 gusting 19 12.8
2019-Dec-13 13:53 360 25 gusting 26 13.3
2019-Dec-13 13:43 360 8 gusting 24 12.8
2019-Dec-13 13:33 360 13 gusting 21 12.8
2019-Dec-13 13:23 360 8 gusting 13 10.0
2019-Dec-13 13:13 360 6 gusting 8 9.4
2019-Dec-13 13:03 360 2 gusting 8 9.4
2019-Dec-13 12:53 360 6 gusting 6 9.4
2019-Dec-13 12:43 360 2 gusting 8 10.6
2019-Dec-13 12:33 360 3 gusting 6 11.1
2019-Dec-13 12:23 360 4 gusting 9 11.1
2019-Dec-13 12:13 360 1 gusting 2 10.6
2019-Dec-13 12:03 360 2 gusting 6 9.4
2019-Dec-13 11:53 360 4 gusting 10 9.4
2019-Dec-13 11:43 360 2 gusting 3 8.9
2019-Dec-13 11:33 360 1 gusting 1 8.9
2019-Dec-13 11:23 360 2 gusting 4 8.3
2019-Dec-13 11:13 360 3 gusting 9 8.3
2019-Dec-13 11:03 360 13 gusting 17 7.8
2019-Dec-13 10:53 360 7 gusting 9 7.8
2019-Dec-13 10:43 225 2 gusting 3 7.2
2019-Dec-13 10:33 254 7 gusting 10 7.2
2019-Dec-13 10:23 267 8 gusting 15 6.7
2019-Dec-13 10:13 248 11 gusting 19 6.7
2019-Dec-13 10:03 240 6 gusting 9 7.2
2019-Dec-13 09:53 263 2 gusting 5 7.8
2019-Dec-13 09:43 311 1 gusting 2 7.8
2019-Dec-13 09:33 011 1 gusting 2 7.2
2019-Dec-13 09:23 300 3 gusting 9 7.2
2019-Dec-13 09:13 235 5 gusting 8 6.7
2019-Dec-13 09:03 243 8 gusting 11 6.7
2019-Dec-13 08:53 240 10 gusting 12 6.7
2019-Dec-13 08:43 240 6 gusting 6 7.2
2019-Dec-13 08:33 264 0 gusting 0 7.8
2019-Dec-13 08:23 247 2 gusting 2 7.8
2019-Dec-13 08:13 269 1 gusting 2 8.3
2019-Dec-13 08:03 312 1 gusting 2 8.3
2019-Dec-13 07:53 074 0 gusting 0 8.3
2019-Dec-13 07:43 248 8.3
2019-Dec-13 07:33 280 1 gusting 1 8.3
2019-Dec-13 07:23 226 1 gusting 2 7.8
2019-Dec-13 07:13 262 2 gusting 2 7.8
2019-Dec-13 07:03 255 2 gusting 9 7.8
2019-Dec-13 06:53 271 8 gusting 8 7.8
2019-Dec-13 06:43 259 8 gusting 10 7.2
2019-Dec-13 06:33 249 5 gusting 6 7.2
2019-Dec-13 06:23 273 2 gusting 8 7.2
2019-Dec-13 06:13 231 9 gusting 12 7.2
2019-Dec-13 06:03 240 7 gusting 12 7.2
2019-Dec-13 05:53 245 6 gusting 9 7.2
2019-Dec-13 05:43 277 6 gusting 12 6.7
2019-Dec-13 05:33 250 5 gusting 10 7.2
2019-Dec-13 05:23 274 8 gusting 11 7.2
2019-Dec-13 05:13 252 8 gusting 10 7.2
2019-Dec-13 05:03 254 8 gusting 8 7.2
2019-Dec-13 04:53 254 7 gusting 11 7.2
2019-Dec-13 04:43 267 6 gusting 8 7.2
2019-Dec-13 04:33 268 4 gusting 6 7.2
2019-Dec-13 04:23 264 8 gusting 8 7.2
2019-Dec-13 04:13 263 8 gusting 9 7.2
2019-Dec-13 04:03 267 8 gusting 9 7.2
2019-Dec-13 03:53 302 2 gusting 6 7.8
2019-Dec-13 03:43 248 8 gusting 9 7.2
2019-Dec-13 03:33 244 6 gusting 8 7.2
2019-Dec-13 03:23 275 4 gusting 7 7.2
2019-Dec-13 03:13 267 5 gusting 5 7.8
2019-Dec-13 03:03 257 2 gusting 6 7.8
2019-Dec-13 02:53 242 2 gusting 5 8.3
2019-Dec-13 02:43 269 2 gusting 2 8.3
2019-Dec-13 02:33 329 8.9
2019-Dec-13 02:23 277 8.9
2019-Dec-13 02:13 277 8.9
2019-Dec-13 02:03 277 8.9
2019-Dec-13 01:53 284 0 gusting 0 8.9
2019-Dec-13 01:43 286 0 gusting 1 8.9
2019-Dec-13 01:33 292 1 gusting 1 8.9
2019-Dec-13 01:23 299 8.9
2019-Dec-13 01:13 299 0 gusting 2 8.9
2019-Dec-13 01:03 298 2 gusting 2 8.9
2019-Dec-13 00:53 298 8.9
2019-Dec-13 00:43 299 1 gusting 2 9.4
2019-Dec-13 00:33 298 1 gusting 1 9.4
2019-Dec-13 00:23 299 9.4
2019-Dec-13 00:13 298 9.4
2019-Dec-13 00:03 299 0 gusting 1 9.4
2019-Dec-12 23:53 360 0 gusting 1 9.4
2019-Dec-12 23:43 360 1 gusting 2 9.4
2019-Dec-12 23:33 360 2 gusting 2 9.4
2019-Dec-12 23:23 360 2 gusting 2 9.4
2019-Dec-12 23:13 360 4 gusting 4 9.4
2019-Dec-12 23:03 360 2 gusting 3 9.4
2019-Dec-12 22:53 360 3 gusting 4 9.4
2019-Dec-12 22:43 360 2 gusting 2 9.4
2019-Dec-12 22:33 360 2 gusting 3 9.4
2019-Dec-12 22:23 360 2 gusting 2 9.4
2019-Dec-12 22:13 360 2 gusting 2 9.4
2019-Dec-12 22:03 360 2 gusting 2 9.4
2019-Dec-12 21:53 360 1 gusting 3 9.4
2019-Dec-12 21:43 360 1 gusting 2 9.4
2019-Dec-12 21:33 360 0 gusting 2 9.4
2019-Dec-12 21:23 360 2 gusting 2 9.4
2019-Dec-12 21:13 360 1 gusting 2 9.4
2019-Dec-12 21:03 360 2 gusting 2 10.0
2019-Dec-12 20:53 360 6 gusting 6 10.0
2019-Dec-12 20:43 360 3 gusting 6 10.0
2019-Dec-12 20:33 360 4 gusting 6 10.0
2019-Dec-12 20:23 360 2 gusting 4 10.0
2019-Dec-12 20:13 068 2 gusting 6 10.6
2019-Dec-12 20:03 360 3 gusting 4 10.6
2019-Dec-12 19:53 360 3 gusting 6 10.6
2019-Dec-12 19:43 360 1 gusting 2 10.6
2019-Dec-12 19:33 360 10.6
2019-Dec-12 19:23 360 0 gusting 2 10.0
2019-Dec-12 19:13 360 2 gusting 2 10.0
2019-Dec-12 19:03 360 2 gusting 2 10.0
2019-Dec-12 18:53 360 2 gusting 3 10.0
2019-Dec-12 18:43 360 2 gusting 2 10.0
2019-Dec-12 18:33 360 2 gusting 2 10.0
2019-Dec-12 18:23 360 1 gusting 2 10.0
2019-Dec-12 18:13 360 2 gusting 2 9.4
2019-Dec-12 18:03 360 3 gusting 3 9.4
2019-Dec-12 17:53 360 2 gusting 2 9.4
2019-Dec-12 17:43 360 1 gusting 2 9.4
2019-Dec-12 17:33 360 1 gusting 2 9.4
2019-Dec-12 17:23 360 0 gusting 2 9.4
2019-Dec-12 17:13 360 9.4
2019-Dec-12 17:03 300 9.4
2019-Dec-12 16:53 311 1 gusting 2 9.4
2019-Dec-12 16:43 304 2 gusting 2 9.4
2019-Dec-12 16:33 292 1 gusting 2 9.4
2019-Dec-12 16:23 303 9.4
2019-Dec-12 16:13 303 2 gusting 2 10.0
2019-Dec-12 16:03 303 1 gusting 2 10.0
2019-Dec-12 15:53 323 1 gusting 1 10.0
2019-Dec-12 15:43 360 0 gusting 2 10.6
2019-Dec-12 15:33 355 11.1
2019-Dec-12 15:23 355 1 gusting 1 11.1
2019-Dec-12 15:13 360 11.1
2019-Dec-12 15:03 360 0 gusting 2 11.1
2019-Dec-12 14:53 360 2 gusting 3 11.1
2019-Dec-12 14:43 360 2 gusting 2 11.1
2019-Dec-12 14:33 360 1 gusting 1 11.7
2019-Dec-12 14:23 360 0 gusting 4 11.7
2019-Dec-12 14:13 360 2 gusting 4 11.7
2019-Dec-12 14:03 360 2 gusting 6 11.7
2019-Dec-12 13:53 360 4 gusting 6 11.7
2019-Dec-12 13:43 360 1 gusting 4 11.7
2019-Dec-12 13:33 360 1 gusting 3 11.7
2019-Dec-12 13:23 175 2 gusting 7 12.2
2019-Dec-12 13:13 360 2 gusting 8 12.2
2019-Dec-12 13:03 360 6 gusting 8 12.2